sensor_id;sensor_type;location;lat;lon;timestamp;temperature;humidity
20091;DHT22;10205;49.678;6.560;2023-06-26T00:02:23;32.30;35.40
20091;DHT22;10205;49.678;6.560;2023-06-26T00:04:50;32.20;35.40
20091;DHT22;10205;49.678;6.560;2023-06-26T00:07:19;32.10;35.50
20091;DHT22;10205;49.678;6.560;2023-06-26T00:09:47;32.00;35.50
20091;DHT22;10205;49.678;6.560;2023-06-26T00:12:15;32.00;35.60
20091;DHT22;10205;49.678;6.560;2023-06-26T00:14:44;31.90;35.70
20091;DHT22;10205;49.678;6.560;2023-06-26T00:17:14;31.90;35.80
20091;DHT22;10205;49.678;6.560;2023-06-26T00:19:42;31.80;35.80
20091;DHT22;10205;49.678;6.560;2023-06-26T00:22:09;31.70;35.90
20091;DHT22;10205;49.678;6.560;2023-06-26T00:24:37;31.70;35.90
20091;DHT22;10205;49.678;6.560;2023-06-26T00:27:05;31.60;35.90
20091;DHT22;10205;49.678;6.560;2023-06-26T00:29:32;31.50;36.00
20091;DHT22;10205;49.678;6.560;2023-06-26T00:32:00;31.50;36.10
20091;DHT22;10205;49.678;6.560;2023-06-26T00:38:10;31.30;36.30
20091;DHT22;10205;49.678;6.560;2023-06-26T00:40:37;31.20;36.20
20091;DHT22;10205;49.678;6.560;2023-06-26T00:43:04;31.20;36.20
20091;DHT22;10205;49.678;6.560;2023-06-26T00:45:31;31.10;36.40
20091;DHT22;10205;49.678;6.560;2023-06-26T00:48:01;31.00;36.40
20091;DHT22;10205;49.678;6.560;2023-06-26T00:50:29;31.00;36.50
20091;DHT22;10205;49.678;6.560;2023-06-26T00:52:57;30.90;36.60
20091;DHT22;10205;49.678;6.560;2023-06-26T00:55:27;30.90;36.70
20091;DHT22;10205;49.678;6.560;2023-06-26T00:57:55;30.80;36.80
20091;DHT22;10205;49.678;6.560;2023-06-26T01:00:23;30.70;36.70
20091;DHT22;10205;49.678;6.560;2023-06-26T01:02:50;30.70;36.80
20091;DHT22;10205;49.678;6.560;2023-06-26T01:05:18;30.60;36.80
20091;DHT22;10205;49.678;6.560;2023-06-26T01:08:08;30.60;36.90
20091;DHT22;10205;49.678;6.560;2023-06-26T01:10:37;30.50;37.00
20091;DHT22;10205;49.678;6.560;2023-06-26T01:13:04;30.50;37.00
20091;DHT22;10205;49.678;6.560;2023-06-26T01:15:32;30.40;37.00
20091;DHT22;10205;49.678;6.560;2023-06-26T01:17:59;30.30;37.10
20091;DHT22;10205;49.678;6.560;2023-06-26T01:20:30;30.30;37.10
20091;DHT22;10205;49.678;6.560;2023-06-26T01:23:05;30.20;37.20
20091;DHT22;10205;49.678;6.560;2023-06-26T01:25:58;30.10;37.40
20091;DHT22;10205;49.678;6.560;2023-06-26T01:28:44;30.10;37.50
20091;DHT22;10205;49.678;6.560;2023-06-26T01:31:12;30.00;37.30
20091;DHT22;10205;49.678;6.560;2023-06-26T01:33:43;30.00;37.40
20091;DHT22;10205;49.678;6.560;2023-06-26T01:36:11;29.90;37.50
20091;DHT22;10205;49.678;6.560;2023-06-26T01:38:40;29.80;37.50
20091;DHT22;10205;49.678;6.560;2023-06-26T01:41:08;29.80;37.60
20091;DHT22;10205;49.678;6.560;2023-06-26T01:43:43;29.70;37.60
20091;DHT22;10205;49.678;6.560;2023-06-26T01:46:30;29.70;37.90
20091;DHT22;10205;49.678;6.560;2023-06-26T01:49:09;29.60;37.80
20091;DHT22;10205;49.678;6.560;2023-06-26T01:51:42;29.60;37.90
20091;DHT22;10205;49.678;6.560;2023-06-26T01:54:17;29.50;37.90
20091;DHT22;10205;49.678;6.560;2023-06-26T01:56:49;29.40;38.00
20091;DHT22;10205;49.678;6.560;2023-06-26T01:59:21;29.40;38.10
20091;DHT22;10205;49.678;6.560;2023-06-26T02:01:49;29.30;38.00
20091;DHT22;10205;49.678;6.560;2023-06-26T02:04:16;29.30;38.70
20091;DHT22;10205;49.678;6.560;2023-06-26T02:06:43;29.20;38.20
20091;DHT22;10205;49.678;6.560;2023-06-26T02:09:10;29.10;38.20
20091;DHT22;10205;49.678;6.560;2023-06-26T02:11:38;29.10;38.40
20091;DHT22;10205;49.678;6.560;2023-06-26T02:14:05;29.00;38.30
20091;DHT22;10205;49.678;6.560;2023-06-26T02:16:36;29.00;38.50
20091;DHT22;10205;49.678;6.560;2023-06-26T02:19:03;29.00;38.70
20091;DHT22;10205;49.678;6.560;2023-06-26T02:21:30;28.90;38.60
20091;DHT22;10205;49.678;6.560;2023-06-26T02:23:58;28.80;38.70
20091;DHT22;10205;49.678;6.560;2023-06-26T02:26:25;28.80;38.70
20091;DHT22;10205;49.678;6.560;2023-06-26T02:28:53;28.70;38.80
20091;DHT22;10205;49.678;6.560;2023-06-26T02:31:20;28.60;38.80
20091;DHT22;10205;49.678;6.560;2023-06-26T02:33:49;28.60;38.90
20091;DHT22;10205;49.678;6.560;2023-06-26T02:36:16;28.60;39.10
20091;DHT22;10205;49.678;6.560;2023-06-26T02:38:43;28.50;39.60
20091;DHT22;10205;49.678;6.560;2023-06-26T02:41:20;28.50;39.10
20091;DHT22;10205;49.678;6.560;2023-06-26T02:43:47;28.40;39.40
20091;DHT22;10205;49.678;6.560;2023-06-26T02:46:15;28.40;39.20
20091;DHT22;10205;49.678;6.560;2023-06-26T02:48:42;28.30;39.20
20091;DHT22;10205;49.678;6.560;2023-06-26T02:51:11;28.30;39.30
20091;DHT22;10205;49.678;6.560;2023-06-26T02:53:38;28.20;39.50
20091;DHT22;10205;49.678;6.560;2023-06-26T02:56:05;28.20;39.50
20091;DHT22;10205;49.678;6.560;2023-06-26T02:58:32;28.20;39.60
20091;DHT22;10205;49.678;6.560;2023-06-26T03:00:59;28.10;39.70
20091;DHT22;10205;49.678;6.560;2023-06-26T03:03:27;28.00;39.60
20091;DHT22;10205;49.678;6.560;2023-06-26T03:05:54;28.00;39.70
20091;DHT22;10205;49.678;6.560;2023-06-26T03:08:23;28.00;39.80
20091;DHT22;10205;49.678;6.560;2023-06-26T03:10:51;27.90;39.90
20091;DHT22;10205;49.678;6.560;2023-06-26T03:13:18;27.80;40.00
20091;DHT22;10205;49.678;6.560;2023-06-26T03:15:45;27.80;40.00
20091;DHT22;10205;49.678;6.560;2023-06-26T03:18:13;27.70;40.00
20091;DHT22;10205;49.678;6.560;2023-06-26T03:20:40;27.70;40.10
20091;DHT22;10205;49.678;6.560;2023-06-26T03:23:08;27.70;40.20
20091;DHT22;10205;49.678;6.560;2023-06-26T03:25:37;27.60;40.20
20091;DHT22;10205;49.678;6.560;2023-06-26T03:28:04;27.60;40.30
20091;DHT22;10205;49.678;6.560;2023-06-26T03:30:31;27.50;40.30
20091;DHT22;10205;49.678;6.560;2023-06-26T03:32:58;27.50;40.50
20091;DHT22;10205;49.678;6.560;2023-06-26T03:35:25;27.50;40.40
20091;DHT22;10205;49.678;6.560;2023-06-26T03:37:53;27.40;41.10
20091;DHT22;10205;49.678;6.560;2023-06-26T03:40:21;27.40;40.70
20091;DHT22;10205;49.678;6.560;2023-06-26T03:42:50;27.30;40.60
20091;DHT22;10205;49.678;6.560;2023-06-26T03:45:17;27.30;40.70
20091;DHT22;10205;49.678;6.560;2023-06-26T03:47:45;27.20;40.60
20091;DHT22;10205;49.678;6.560;2023-06-26T03:50:15;27.20;40.80
20091;DHT22;10205;49.678;6.560;2023-06-26T03:52:42;27.10;40.80
20091;DHT22;10205;49.678;6.560;2023-06-26T03:55:09;27.10;40.80
20091;DHT22;10205;49.678;6.560;2023-06-26T03:57:37;27.10;40.90
20091;DHT22;10205;49.678;6.560;2023-06-26T04:00:07;27.00;41.00
20091;DHT22;10205;49.678;6.560;2023-06-26T04:02:37;27.00;41.20
20091;DHT22;10205;49.678;6.560;2023-06-26T04:05:04;26.90;41.00
20091;DHT22;10205;49.678;6.560;2023-06-26T04:07:32;26.90;41.10
20091;DHT22;10205;49.678;6.560;2023-06-26T04:10:00;26.80;41.20
20091;DHT22;10205;49.678;6.560;2023-06-26T04:12:27;26.80;41.30
20091;DHT22;10205;49.678;6.560;2023-06-26T04:14:55;26.80;41.40
20091;DHT22;10205;49.678;6.560;2023-06-26T04:17:24;26.70;41.30
20091;DHT22;10205;49.678;6.560;2023-06-26T04:19:51;26.70;41.40
20091;DHT22;10205;49.678;6.560;2023-06-26T04:22:18;26.60;41.30
20091;DHT22;10205;49.678;6.560;2023-06-26T04:24:46;26.60;41.40
20091;DHT22;10205;49.678;6.560;2023-06-26T04:27:13;26.60;41.40
20091;DHT22;10205;49.678;6.560;2023-06-26T04:29:40;26.60;41.60
20091;DHT22;10205;49.678;6.560;2023-06-26T04:32:08;26.50;41.60
20091;DHT22;10205;49.678;6.560;2023-06-26T04:34:36;26.50;41.60
20091;DHT22;10205;49.678;6.560;2023-06-26T04:37:06;26.50;41.80
20091;DHT22;10205;49.678;6.560;2023-06-26T04:39:37;26.40;41.70
20091;DHT22;10205;49.678;6.560;2023-06-26T04:42:05;26.40;41.90
20091;DHT22;10205;49.678;6.560;2023-06-26T04:44:33;26.30;41.90
20091;DHT22;10205;49.678;6.560;2023-06-26T04:47:01;26.30;41.90
20091;DHT22;10205;49.678;6.560;2023-06-26T04:49:28;26.30;42.10
20091;DHT22;10205;49.678;6.560;2023-06-26T04:51:57;26.20;42.10
20091;DHT22;10205;49.678;6.560;2023-06-26T04:54:26;26.20;42.20
20091;DHT22;10205;49.678;6.560;2023-06-26T04:56:54;26.20;42.20
20091;DHT22;10205;49.678;6.560;2023-06-26T04:59:23;26.20;42.20
20091;DHT22;10205;49.678;6.560;2023-06-26T05:01:50;26.10;42.20
20091;DHT22;10205;49.678;6.560;2023-06-26T05:04:17;26.10;42.30
20091;DHT22;10205;49.678;6.560;2023-06-26T05:06:44;26.10;42.30
20091;DHT22;10205;49.678;6.560;2023-06-26T05:09:13;26.00;42.30
20091;DHT22;10205;49.678;6.560;2023-06-26T05:11:40;26.00;42.50
20091;DHT22;10205;49.678;6.560;2023-06-26T05:14:08;26.00;42.50
20091;DHT22;10205;49.678;6.560;2023-06-26T05:16:35;25.90;42.60
20091;DHT22;10205;49.678;6.560;2023-06-26T05:19:03;25.90;42.60
20091;DHT22;10205;49.678;6.560;2023-06-26T05:21:30;25.90;42.60
20091;DHT22;10205;49.678;6.560;2023-06-26T05:23:58;25.80;42.60
20091;DHT22;10205;49.678;6.560;2023-06-26T05:26:28;25.80;42.80
20091;DHT22;10205;49.678;6.560;2023-06-26T05:28:58;25.80;42.90
20091;DHT22;10205;49.678;6.560;2023-06-26T05:31:26;25.80;42.90
20091;DHT22;10205;49.678;6.560;2023-06-26T05:33:55;25.80;43.20
20091;DHT22;10205;49.678;6.560;2023-06-26T05:36:26;25.70;43.30
20091;DHT22;10205;49.678;6.560;2023-06-26T05:38:54;25.80;43.60
20091;DHT22;10205;49.678;6.560;2023-06-26T05:41:23;25.80;43.40
20091;DHT22;10205;49.678;6.560;2023-06-26T05:43:52;25.70;43.20
20091;DHT22;10205;49.678;6.560;2023-06-26T05:46:20;25.70;43.60
20091;DHT22;10205;49.678;6.560;2023-06-26T05:48:48;25.70;43.70
20091;DHT22;10205;49.678;6.560;2023-06-26T05:51:15;25.70;43.80
20091;DHT22;10205;49.678;6.560;2023-06-26T05:53:43;25.60;43.80
20091;DHT22;10205;49.678;6.560;2023-06-26T05:56:12;25.70;43.70
20091;DHT22;10205;49.678;6.560;2023-06-26T05:58:40;25.70;43.70
20091;DHT22;10205;49.678;6.560;2023-06-26T06:01:10;25.60;43.70
20091;DHT22;10205;49.678;6.560;2023-06-26T06:03:39;25.60;43.80
20091;DHT22;10205;49.678;6.560;2023-06-26T06:06:06;25.60;43.80
20091;DHT22;10205;49.678;6.560;2023-06-26T06:08:33;25.60;43.80
20091;DHT22;10205;49.678;6.560;2023-06-26T06:11:01;25.60;43.80
20091;DHT22;10205;49.678;6.560;2023-06-26T06:13:28;25.60;43.80
20091;DHT22;10205;49.678;6.560;2023-06-26T06:15:55;25.60;44.20
20091;DHT22;10205;49.678;6.560;2023-06-26T06:18:24;25.60;44.30
20091;DHT22;10205;49.678;6.560;2023-06-26T06:20:52;25.70;44.30
20091;DHT22;10205;49.678;6.560;2023-06-26T06:23:19;25.60;44.20
20091;DHT22;10205;49.678;6.560;2023-06-26T06:25:46;25.70;44.30
20091;DHT22;10205;49.678;6.560;2023-06-26T06:28:13;25.70;44.40
20091;DHT22;10205;49.678;6.560;2023-06-26T06:30:42;25.70;44.40
20091;DHT22;10205;49.678;6.560;2023-06-26T06:33:09;25.70;44.40
20091;DHT22;10205;49.678;6.560;2023-06-26T06:35:37;25.70;44.40
20091;DHT22;10205;49.678;6.560;2023-06-26T06:38:05;25.80;44.60
20091;DHT22;10205;49.678;6.560;2023-06-26T06:40:32;25.70;44.40
20091;DHT22;10205;49.678;6.560;2023-06-26T06:42:59;25.80;44.40
20091;DHT22;10205;49.678;6.560;2023-06-26T06:45:27;25.80;44.40
20091;DHT22;10205;49.678;6.560;2023-06-26T06:47:54;25.80;44.30
20091;DHT22;10205;49.678;6.560;2023-06-26T06:50:21;25.80;44.20
20091;DHT22;10205;49.678;6.560;2023-06-26T06:52:50;25.80;43.90
20091;DHT22;10205;49.678;6.560;2023-06-26T06:55:17;25.90;43.90
20091;DHT22;10205;49.678;6.560;2023-06-26T06:57:45;25.90;44.00
20091;DHT22;10205;49.678;6.560;2023-06-26T07:00:13;25.90;44.00
20091;DHT22;10205;49.678;6.560;2023-06-26T07:02:43;25.90;44.10
20091;DHT22;10205;49.678;6.560;2023-06-26T07:05:12;26.00;44.00
20091;DHT22;10205;49.678;6.560;2023-06-26T07:07:39;26.00;44.00
20091;DHT22;10205;49.678;6.560;2023-06-26T07:10:10;26.10;43.90
20091;DHT22;10205;49.678;6.560;2023-06-26T07:12:38;26.00;43.90
20091;DHT22;10205;49.678;6.560;2023-06-26T07:15:07;26.10;43.80
20091;DHT22;10205;49.678;6.560;2023-06-26T07:17:35;26.20;43.90
20091;DHT22;10205;49.678;6.560;2023-06-26T07:20:04;26.20;43.90
20091;DHT22;10205;49.678;6.560;2023-06-26T07:22:33;26.20;43.70
20091;DHT22;10205;49.678;6.560;2023-06-26T07:25:01;26.30;43.60
20091;DHT22;10205;49.678;6.560;2023-06-26T07:27:31;26.30;43.50
20091;DHT22;10205;49.678;6.560;2023-06-26T07:29:59;26.30;43.50
20091;DHT22;10205;49.678;6.560;2023-06-26T07:32:26;26.40;43.40
20091;DHT22;10205;49.678;6.560;2023-06-26T07:34:53;26.40;43.40
20091;DHT22;10205;49.678;6.560;2023-06-26T07:37:21;26.40;43.40
20091;DHT22;10205;49.678;6.560;2023-06-26T07:39:49;26.50;43.30
20091;DHT22;10205;49.678;6.560;2023-06-26T07:42:16;26.60;43.20
20091;DHT22;10205;49.678;6.560;2023-06-26T07:44:47;26.60;43.30
20091;DHT22;10205;49.678;6.560;2023-06-26T07:47:15;26.70;43.00
20091;DHT22;10205;49.678;6.560;2023-06-26T07:49:42;26.70;43.30
20091;DHT22;10205;49.678;6.560;2023-06-26T07:52:10;26.80;42.60
20091;DHT22;10205;49.678;6.560;2023-06-26T07:54:37;26.80;43.00
20091;DHT22;10205;49.678;6.560;2023-06-26T07:57:05;26.90;43.00
20091;DHT22;10205;49.678;6.560;2023-06-26T07:59:34;26.90;43.00
20091;DHT22;10205;49.678;6.560;2023-06-26T08:02:05;27.00;42.70
20091;DHT22;10205;49.678;6.560;2023-06-26T08:04:33;27.10;42.60
20091;DHT22;10205;49.678;6.560;2023-06-26T08:07:01;27.10;42.80
20091;DHT22;10205;49.678;6.560;2023-06-26T08:09:30;27.20;42.70
20091;DHT22;10205;49.678;6.560;2023-06-26T08:11:59;27.30;42.60
20091;DHT22;10205;49.678;6.560;2023-06-26T08:14:27;27.40;42.60
20091;DHT22;10205;49.678;6.560;2023-06-26T08:16:55;27.40;42.20
20091;DHT22;10205;49.678;6.560;2023-06-26T08:19:26;27.50;42.40
20091;DHT22;10205;49.678;6.560;2023-06-26T08:21:54;27.60;42.40
20091;DHT22;10205;49.678;6.560;2023-06-26T08:24:24;27.60;42.40
20091;DHT22;10205;49.678;6.560;2023-06-26T08:26:51;27.70;42.20
20091;DHT22;10205;49.678;6.560;2023-06-26T08:29:19;27.80;41.70
20091;DHT22;10205;49.678;6.560;2023-06-26T08:31:46;27.90;41.80
20091;DHT22;10205;49.678;6.560;2023-06-26T08:34:13;27.90;41.80
20091;DHT22;10205;49.678;6.560;2023-06-26T08:36:42;28.00;41.80
20091;DHT22;10205;49.678;6.560;2023-06-26T08:39:10;28.10;41.40
20091;DHT22;10205;49.678;6.560;2023-06-26T08:41:38;28.20;41.20
20091;DHT22;10205;49.678;6.560;2023-06-26T08:44:07;28.30;41.40
20091;DHT22;10205;49.678;6.560;2023-06-26T08:46:35;28.30;41.30
20091;DHT22;10205;49.678;6.560;2023-06-26T08:49:09;28.40;41.40
20091;DHT22;10205;49.678;6.560;2023-06-26T08:51:50;28.40;40.90
20091;DHT22;10205;49.678;6.560;2023-06-26T08:54:38;28.50;40.80
20091;DHT22;10205;49.678;6.560;2023-06-26T08:57:12;28.60;41.00
20091;DHT22;10205;49.678;6.560;2023-06-26T08:59:43;28.70;41.20
20091;DHT22;10205;49.678;6.560;2023-06-26T09:02:10;28.80;40.80
20091;DHT22;10205;49.678;6.560;2023-06-26T09:04:39;28.80;40.90
20091;DHT22;10205;49.678;6.560;2023-06-26T09:07:09;28.90;41.10
20091;DHT22;10205;49.678;6.560;2023-06-26T09:09:36;29.00;41.10
20091;DHT22;10205;49.678;6.560;2023-06-26T09:12:04;29.10;41.00
20091;DHT22;10205;49.678;6.560;2023-06-26T09:14:32;29.10;40.90
20091;DHT22;10205;49.678;6.560;2023-06-26T09:17:01;29.20;40.70
20091;DHT22;10205;49.678;6.560;2023-06-26T09:23:11;29.40;40.60
20091;DHT22;10205;49.678;6.560;2023-06-26T09:25:42;29.50;40.60
20091;DHT22;10205;49.678;6.560;2023-06-26T09:28:11;29.60;40.60
20091;DHT22;10205;49.678;6.560;2023-06-26T09:30:41;29.60;40.40
20091;DHT22;10205;49.678;6.560;2023-06-26T09:33:14;29.70;40.50
20091;DHT22;10205;49.678;6.560;2023-06-26T09:35:43;29.80;40.30
20091;DHT22;10205;49.678;6.560;2023-06-26T09:38:14;29.90;40.30
20091;DHT22;10205;49.678;6.560;2023-06-26T09:40:43;29.90;40.10
20091;DHT22;10205;49.678;6.560;2023-06-26T09:43:13;30.00;40.10
20091;DHT22;10205;49.678;6.560;2023-06-26T09:45:41;30.10;40.00
20091;DHT22;10205;49.678;6.560;2023-06-26T09:48:09;30.20;40.00
20091;DHT22;10205;49.678;6.560;2023-06-26T09:50:41;30.30;40.00
20091;DHT22;10205;49.678;6.560;2023-06-26T09:53:10;30.40;39.70
20091;DHT22;10205;49.678;6.560;2023-06-26T09:55:41;30.50;39.80
20091;DHT22;10205;49.678;6.560;2023-06-26T09:58:10;30.50;39.40
20091;DHT22;10205;49.678;6.560;2023-06-26T10:00:40;30.60;39.40
20091;DHT22;10205;49.678;6.560;2023-06-26T10:03:08;30.70;39.50
20091;DHT22;10205;49.678;6.560;2023-06-26T10:05:38;30.80;39.20
20091;DHT22;10205;49.678;6.560;2023-06-26T10:08:06;30.80;38.60
20091;DHT22;10205;49.678;6.560;2023-06-26T10:10:36;30.90;38.50
20091;DHT22;10205;49.678;6.560;2023-06-26T10:13:11;31.00;38.40
20091;DHT22;10205;49.678;6.560;2023-06-26T10:15:44;31.00;38.40
20091;DHT22;10205;49.678;6.560;2023-06-26T10:18:16;31.10;38.00
20091;DHT22;10205;49.678;6.560;2023-06-26T10:20:48;31.20;37.80
20091;DHT22;10205;49.678;6.560;2023-06-26T10:23:18;31.20;37.00
20091;DHT22;10205;49.678;6.560;2023-06-26T10:25:48;31.30;37.60
20091;DHT22;10205;49.678;6.560;2023-06-26T10:28:21;31.40;37.30
20091;DHT22;10205;49.678;6.560;2023-06-26T10:30:51;31.40;37.70
20091;DHT22;10205;49.678;6.560;2023-06-26T10:33:20;31.50;37.50
20091;DHT22;10205;49.678;6.560;2023-06-26T10:35:49;31.60;37.50
20091;DHT22;10205;49.678;6.560;2023-06-26T10:38:17;31.60;37.30
20091;DHT22;10205;49.678;6.560;2023-06-26T10:40:47;31.70;37.50
20091;DHT22;10205;49.678;6.560;2023-06-26T10:43:16;31.80;37.10
20091;DHT22;10205;49.678;6.560;2023-06-26T10:45:46;31.90;36.50
20091;DHT22;10205;49.678;6.560;2023-06-26T10:48:17;31.90;35.90
20091;DHT22;10205;49.678;6.560;2023-06-26T10:50:47;32.00;36.20
20091;DHT22;10205;49.678;6.560;2023-06-26T10:53:16;32.10;35.60
20091;DHT22;10205;49.678;6.560;2023-06-26T10:59:34;32.20;35.40
20091;DHT22;10205;49.678;6.560;2023-06-26T11:02:07;32.40;35.30
20091;DHT22;10205;49.678;6.560;2023-06-26T11:04:39;32.40;35.20
20091;DHT22;10205;49.678;6.560;2023-06-26T11:07:18;32.50;35.00
20091;DHT22;10205;49.678;6.560;2023-06-26T11:09:57;32.60;33.60
20091;DHT22;10205;49.678;6.560;2023-06-26T11:12:36;32.60;34.70
20091;DHT22;10205;49.678;6.560;2023-06-26T11:15:08;32.70;35.10
20091;DHT22;10205;49.678;6.560;2023-06-26T11:17:41;32.80;34.90
20091;DHT22;10205;49.678;6.560;2023-06-26T11:20:13;32.80;34.20
20091;DHT22;10205;49.678;6.560;2023-06-26T11:22:42;32.80;34.40
20091;DHT22;10205;49.678;6.560;2023-06-26T11:25:11;32.90;34.10
20091;DHT22;10205;49.678;6.560;2023-06-26T11:27:40;32.90;34.00
20091;DHT22;10205;49.678;6.560;2023-06-26T11:30:10;33.00;33.80
20091;DHT22;10205;49.678;6.560;2023-06-26T11:32:43;33.00;33.40
20091;DHT22;10205;49.678;6.560;2023-06-26T11:35:11;33.10;33.60
20091;DHT22;10205;49.678;6.560;2023-06-26T11:37:39;33.10;33.50
20091;DHT22;10205;49.678;6.560;2023-06-26T11:40:17;33.20;33.50
20091;DHT22;10205;49.678;6.560;2023-06-26T11:42:44;33.20;32.80
20091;DHT22;10205;49.678;6.560;2023-06-26T11:45:14;33.30;32.90
20091;DHT22;10205;49.678;6.560;2023-06-26T11:47:45;33.30;32.70
20091;DHT22;10205;49.678;6.560;2023-06-26T11:50:15;33.40;32.80
20091;DHT22;10205;49.678;6.560;2023-06-26T11:52:44;33.50;31.80
20091;DHT22;10205;49.678;6.560;2023-06-26T11:55:20;33.50;31.10
20091;DHT22;10205;49.678;6.560;2023-06-26T11:57:48;33.60;32.30
20091;DHT22;10205;49.678;6.560;2023-06-26T12:00:18;33.60;32.30
20091;DHT22;10205;49.678;6.560;2023-06-26T12:02:48;33.70;32.00
20091;DHT22;10205;49.678;6.560;2023-06-26T12:05:17;33.70;31.90
20091;DHT22;10205;49.678;6.560;2023-06-26T12:07:47;33.80;32.10
20091;DHT22;10205;49.678;6.560;2023-06-26T12:10:17;33.80;32.00
20091;DHT22;10205;49.678;6.560;2023-06-26T12:12:46;33.90;31.90
20091;DHT22;10205;49.678;6.560;2023-06-26T12:15:15;33.90;31.60
20091;DHT22;10205;49.678;6.560;2023-06-26T12:17:44;34.10;31.70
20091;DHT22;10205;49.678;6.560;2023-06-26T12:20:22;34.10;31.40
20091;DHT22;10205;49.678;6.560;2023-06-26T12:22:52;34.20;31.30
20091;DHT22;10205;49.678;6.560;2023-06-26T12:25:22;34.20;30.50
20091;DHT22;10205;49.678;6.560;2023-06-26T12:27:50;34.20;30.00
20091;DHT22;10205;49.678;6.560;2023-06-26T12:30:17;34.30;29.80
20091;DHT22;10205;49.678;6.560;2023-06-26T12:32:45;34.30;30.30
20091;DHT22;10205;49.678;6.560;2023-06-26T12:35:13;34.30;30.30
20091;DHT22;10205;49.678;6.560;2023-06-26T12:37:43;34.40;30.20
20091;DHT22;10205;49.678;6.560;2023-06-26T12:40:20;34.30;30.10
20091;DHT22;10205;49.678;6.560;2023-06-26T12:42:48;34.30;29.40
20091;DHT22;10205;49.678;6.560;2023-06-26T12:45:16;34.40;30.00
20091;DHT22;10205;49.678;6.560;2023-06-26T12:47:43;34.40;29.70
20091;DHT22;10205;49.678;6.560;2023-06-26T12:50:12;34.50;30.00
20091;DHT22;10205;49.678;6.560;2023-06-26T12:52:43;34.50;28.80
20091;DHT22;10205;49.678;6.560;2023-06-26T12:55:11;34.50;29.60
20091;DHT22;10205;49.678;6.560;2023-06-26T12:57:41;34.50;29.80
20091;DHT22;10205;49.678;6.560;2023-06-26T13:00:09;34.60;30.00
20091;DHT22;10205;49.678;6.560;2023-06-26T13:02:38;34.60;29.70
20091;DHT22;10205;49.678;6.560;2023-06-26T13:05:11;34.60;29.80
20091;DHT22;10205;49.678;6.560;2023-06-26T13:07:39;34.70;29.70
20091;DHT22;10205;49.678;6.560;2023-06-26T13:10:08;34.70;29.60
20091;DHT22;10205;49.678;6.560;2023-06-26T13:12:36;34.80;29.40
20091;DHT22;10205;49.678;6.560;2023-06-26T13:15:05;34.80;29.70
20091;DHT22;10205;49.678;6.560;2023-06-26T13:17:33;34.80;29.20
20091;DHT22;10205;49.678;6.560;2023-06-26T13:20:00;34.90;29.60
20091;DHT22;10205;49.678;6.560;2023-06-26T13:22:28;34.90;29.30
20091;DHT22;10205;49.678;6.560;2023-06-26T13:24:55;34.90;29.30
20091;DHT22;10205;49.678;6.560;2023-06-26T13:27:24;35.00;29.20
20091;DHT22;10205;49.678;6.560;2023-06-26T13:29:52;35.00;28.10
20091;DHT22;10205;49.678;6.560;2023-06-26T13:32:20;35.00;28.80
20091;DHT22;10205;49.678;6.560;2023-06-26T13:34:48;35.00;28.50
20091;DHT22;10205;49.678;6.560;2023-06-26T13:37:17;35.00;27.70
20091;DHT22;10205;49.678;6.560;2023-06-26T13:39:45;35.00;28.40
20091;DHT22;10205;49.678;6.560;2023-06-26T13:42:15;35.00;28.50
20091;DHT22;10205;49.678;6.560;2023-06-26T13:44:44;35.00;28.30
20091;DHT22;10205;49.678;6.560;2023-06-26T13:47:13;35.00;28.10
20091;DHT22;10205;49.678;6.560;2023-06-26T13:49:40;35.00;28.30
20091;DHT22;10205;49.678;6.560;2023-06-26T13:52:08;35.00;28.50
20091;DHT22;10205;49.678;6.560;2023-06-26T13:54:42;35.10;28.30
20091;DHT22;10205;49.678;6.560;2023-06-26T13:57:10;35.10;28.80
20091;DHT22;10205;49.678;6.560;2023-06-26T13:59:41;35.10;28.00
20091;DHT22;10205;49.678;6.560;2023-06-26T14:02:10;35.10;27.90
20091;DHT22;10205;49.678;6.560;2023-06-26T14:04:37;35.10;27.30
20091;DHT22;10205;49.678;6.560;2023-06-26T14:07:05;35.10;27.80
20091;DHT22;10205;49.678;6.560;2023-06-26T14:09:34;35.00;27.50
20091;DHT22;10205;49.678;6.560;2023-06-26T14:12:01;35.00;28.20
20091;DHT22;10205;49.678;6.560;2023-06-26T14:14:29;35.00;28.10
20091;DHT22;10205;49.678;6.560;2023-06-26T14:16:59;35.00;28.50
20091;DHT22;10205;49.678;6.560;2023-06-26T14:19:26;35.00;28.20
20091;DHT22;10205;49.678;6.560;2023-06-26T14:21:54;35.00;28.30
20091;DHT22;10205;49.678;6.560;2023-06-26T14:24:22;35.00;28.50
20091;DHT22;10205;49.678;6.560;2023-06-26T14:26:50;35.00;28.30
20091;DHT22;10205;49.678;6.560;2023-06-26T14:29:18;35.00;28.40
20091;DHT22;10205;49.678;6.560;2023-06-26T14:31:47;35.10;28.50
20091;DHT22;10205;49.678;6.560;2023-06-26T14:34:15;35.10;28.30
20091;DHT22;10205;49.678;6.560;2023-06-26T14:36:42;35.10;28.20
20091;DHT22;10205;49.678;6.560;2023-06-26T14:39:10;35.00;27.90
20091;DHT22;10205;49.678;6.560;2023-06-26T14:41:38;35.00;27.90
20091;DHT22;10205;49.678;6.560;2023-06-26T14:44:05;35.00;28.00
20091;DHT22;10205;49.678;6.560;2023-06-26T14:46:35;35.00;28.10
20091;DHT22;10205;49.678;6.560;2023-06-26T14:49:03;35.00;28.30
20091;DHT22;10205;49.678;6.560;2023-06-26T14:51:33;35.00;28.10
20091;DHT22;10205;49.678;6.560;2023-06-26T14:54:00;35.00;27.90
20091;DHT22;10205;49.678;6.560;2023-06-26T14:56:28;35.00;28.20
20091;DHT22;10205;49.678;6.560;2023-06-26T14:58:56;35.00;28.40
20091;DHT22;10205;49.678;6.560;2023-06-26T15:01:23;35.00;28.10
20091;DHT22;10205;49.678;6.560;2023-06-26T15:03:51;35.00;28.10
20091;DHT22;10205;49.678;6.560;2023-06-26T15:06:21;35.00;28.10
20091;DHT22;10205;49.678;6.560;2023-06-26T15:08:50;35.00;28.30
20091;DHT22;10205;49.678;6.560;2023-06-26T15:11:18;35.00;27.90
20091;DHT22;10205;49.678;6.560;2023-06-26T15:13:46;35.00;28.00
20091;DHT22;10205;49.678;6.560;2023-06-26T15:16:13;35.00;27.80
20091;DHT22;10205;49.678;6.560;2023-06-26T15:18:48;34.90;28.00
20091;DHT22;10205;49.678;6.560;2023-06-26T15:21:15;34.90;27.90
20091;DHT22;10205;49.678;6.560;2023-06-26T15:23:44;34.90;28.20
20091;DHT22;10205;49.678;6.560;2023-06-26T15:26:14;34.80;28.20
20091;DHT22;10205;49.678;6.560;2023-06-26T15:28:41;34.80;28.40
20091;DHT22;10205;49.678;6.560;2023-06-26T15:31:09;34.80;28.40
20091;DHT22;10205;49.678;6.560;2023-06-26T15:33:36;34.90;27.90
20091;DHT22;10205;49.678;6.560;2023-06-26T15:36:05;34.90;28.50
20091;DHT22;10205;49.678;6.560;2023-06-26T15:38:33;34.90;28.10
20091;DHT22;10205;49.678;6.560;2023-06-26T15:41:00;34.90;28.10
20091;DHT22;10205;49.678;6.560;2023-06-26T15:43:31;34.90;27.90
20091;DHT22;10205;49.678;6.560;2023-06-26T15:46:00;34.90;28.10
20091;DHT22;10205;49.678;6.560;2023-06-26T15:48:28;34.80;27.90
20091;DHT22;10205;49.678;6.560;2023-06-26T15:50:55;34.80;27.70
20091;DHT22;10205;49.678;6.560;2023-06-26T15:53:34;34.70;27.30